sensor_id;sensor_type;location;lat;lon;timestamp;P1;durP1;ratioP1;P2;durP2;ratioP2
69894;SDS011;57172;52.034;5.090;2022-11-04T00:02:15;4.65;;;1.77;;
69894;SDS011;57172;52.034;5.090;2022-11-04T00:04:42;4.32;;;1.40;;
69894;SDS011;57172;52.034;5.090;2022-11-04T00:07:09;6.30;;;2.00;;
69894;SDS011;57172;52.034;5.090;2022-11-04T00:09:55;6.83;;;1.60;;
69894;SDS011;57172;52.034;5.090;2022-11-04T00:12:22;6.32;;;1.80;;
69894;SDS011;57172;52.034;5.090;2022-11-04T00:14:52;6.75;;;1.98;;
69894;SDS011;57172;52.034;5.090;2022-11-04T00:17:19;5.95;;;2.05;;
69894;SDS011;57172;52.034;5.090;2022-11-04T00:19:50;8.00;;;2.00;;
69894;SDS011;57172;52.034;5.090;2022-11-04T00:22:37;7.83;;;2.50;;
69894;SDS011;57172;52.034;5.090;2022-11-04T00:25:23;5.82;;;2.25;;
69894;SDS011;57172;52.034;5.090;2022-11-04T00:31:00;7.47;;;2.10;;
69894;SDS011;57172;52.034;5.090;2022-11-04T00:33:48;7.05;;;1.90;;
69894;SDS011;57172;52.034;5.090;2022-11-04T00:36:17;4.23;;;1.30;;
69894;SDS011;57172;52.034;5.090;2022-11-04T00:38:44;9.00;;;1.80;;
69894;SDS011;57172;52.034;5.090;2022-11-04T00:41:11;4.47;;;1.88;;
69894;SDS011;57172;52.034;5.090;2022-11-04T00:43:58;3.40;;;1.40;;
69894;SDS011;57172;52.034;5.090;2022-11-04T00:46:27;4.57;;;1.73;;
69894;SDS011;57172;52.034;5.090;2022-11-04T00:48:55;3.87;;;1.70;;
69894;SDS011;57172;52.034;5.090;2022-11-04T00:51:22;3.85;;;1.80;;
69894;SDS011;57172;52.034;5.090;2022-11-04T00:53:49;4.65;;;1.60;;
69894;SDS011;57172;52.034;5.090;2022-11-04T00:56:16;6.22;;;1.88;;
69894;SDS011;57172;52.034;5.090;2022-11-04T00:58:43;4.47;;;1.70;;
69894;SDS011;57172;52.034;5.090;2022-11-04T01:01:11;4.27;;;1.70;;
69894;SDS011;57172;52.034;5.090;2022-11-04T01:03:43;5.10;;;1.83;;
69894;SDS011;57172;52.034;5.090;2022-11-04T01:06:15;3.78;;;1.52;;
69894;SDS011;57172;52.034;5.090;2022-11-04T01:08:43;4.07;;;1.40;;
69894;SDS011;57172;52.034;5.090;2022-11-04T01:11:10;3.90;;;1.30;;
69894;SDS011;57172;52.034;5.090;2022-11-04T01:13:38;3.07;;;1.50;;
69894;SDS011;57172;52.034;5.090;2022-11-04T01:16:06;5.90;;;1.67;;
69894;SDS011;57172;52.034;5.090;2022-11-04T01:18:35;4.25;;;1.60;;
69894;SDS011;57172;52.034;5.090;2022-11-04T01:21:03;3.55;;;1.58;;
69894;SDS011;57172;52.034;5.090;2022-11-04T01:23:32;3.53;;;1.52;;
69894;SDS011;57172;52.034;5.090;2022-11-04T01:26:00;3.70;;;1.40;;
69894;SDS011;57172;52.034;5.090;2022-11-04T01:28:27;6.43;;;1.70;;
69894;SDS011;57172;52.034;5.090;2022-11-04T01:30:54;4.85;;;1.80;;
69894;SDS011;57172;52.034;5.090;2022-11-04T01:33:20;4.63;;;1.50;;
69894;SDS011;57172;52.034;5.090;2022-11-04T01:35:47;4.80;;;1.40;;
69894;SDS011;57172;52.034;5.090;2022-11-04T01:38:14;2.90;;;1.20;;
69894;SDS011;57172;52.034;5.090;2022-11-04T01:40:41;4.00;;;1.08;;
69894;SDS011;57172;52.034;5.090;2022-11-04T01:43:11;1.80;;;1.00;;
69894;SDS011;57172;52.034;5.090;2022-11-04T01:45:45;2.17;;;1.10;;
69894;SDS011;57172;52.034;5.090;2022-11-04T01:48:18;2.38;;;1.20;;
69894;SDS011;57172;52.034;5.090;2022-11-04T01:51:04;4.67;;;1.20;;
69894;SDS011;57172;52.034;5.090;2022-11-04T01:53:33;4.82;;;1.65;;
69894;SDS011;57172;52.034;5.090;2022-11-04T01:56:04;2.88;;;1.10;;
69894;SDS011;57172;52.034;5.090;2022-11-04T01:58:38;1.45;;;1.00;;
69894;SDS011;57172;52.034;5.090;2022-11-04T02:01:09;1.85;;;1.10;;
69894;SDS011;57172;52.034;5.090;2022-11-04T02:03:39;1.70;;;1.00;;
69894;SDS011;57172;52.034;5.090;2022-11-04T02:06:14;3.58;;;0.93;;
69894;SDS011;57172;52.034;5.090;2022-11-04T02:08:43;3.70;;;0.98;;
69894;SDS011;57172;52.034;5.090;2022-11-04T02:11:11;1.58;;;1.00;;
69894;SDS011;57172;52.034;5.090;2022-11-04T02:13:58;2.00;;;1.00;;
69894;SDS011;57172;52.034;5.090;2022-11-04T02:16:30;3.17;;;1.20;;
69894;SDS011;57172;52.034;5.090;2022-11-04T02:21:47;3.45;;;1.35;;
69894;SDS011;57172;52.034;5.090;2022-11-04T02:27:47;4.93;;;1.40;;
69894;SDS011;57172;52.034;5.090;2022-11-04T02:31:01;5.60;;;1.50;;
69894;SDS011;57172;52.034;5.090;2022-11-04T02:36:49;4.65;;;1.70;;
69894;SDS011;57172;52.034;5.090;2022-11-04T02:47:37;2.38;;;1.50;;
69894;SDS011;57172;52.034;5.090;2022-11-04T02:50:13;3.95;;;1.70;;
69894;SDS011;57172;52.034;5.090;2022-11-04T02:55:43;3.80;;;1.70;;
69894;SDS011;57172;52.034;5.090;2022-11-04T02:58:14;3.43;;;1.70;;
69894;SDS011;57172;52.034;5.090;2022-11-04T03:00:46;4.93;;;1.70;;
69894;SDS011;57172;52.034;5.090;2022-11-04T03:03:20;5.47;;;2.05;;
69894;SDS011;57172;52.034;5.090;2022-11-04T03:05:52;5.40;;;2.45;;
69894;SDS011;57172;52.034;5.090;2022-11-04T03:08:24;5.15;;;2.50;;
69894;SDS011;57172;52.034;5.090;2022-11-04T03:11:05;6.40;;;2.53;;
69894;SDS011;57172;52.034;5.090;2022-11-04T03:13:42;5.57;;;2.85;;
69894;SDS011;57172;52.034;5.090;2022-11-04T03:16:11;7.68;;;3.00;;
69894;SDS011;57172;52.034;5.090;2022-11-04T03:21:18;6.93;;;3.10;;
69894;SDS011;57172;52.034;5.090;2022-11-04T03:23:47;7.33;;;3.40;;
69894;SDS011;57172;52.034;5.090;2022-11-04T03:26:22;8.55;;;3.47;;
69894;SDS011;57172;52.034;5.090;2022-11-04T03:29:11;6.57;;;3.22;;
69894;SDS011;57172;52.034;5.090;2022-11-04T03:31:47;6.75;;;3.45;;
69894;SDS011;57172;52.034;5.090;2022-11-04T03:34:34;5.80;;;3.00;;
69894;SDS011;57172;52.034;5.090;2022-11-04T03:37:02;6.17;;;3.00;;
69894;SDS011;57172;52.034;5.090;2022-11-04T03:39:29;7.22;;;3.05;;
69894;SDS011;57172;52.034;5.090;2022-11-04T03:41:58;6.10;;;3.10;;
69894;SDS011;57172;52.034;5.090;2022-11-04T03:44:28;7.53;;;3.20;;
69894;SDS011;57172;52.034;5.090;2022-11-04T03:46:55;8.43;;;3.90;;
69894;SDS011;57172;52.034;5.090;2022-11-04T03:49:22;6.93;;;3.30;;
69894;SDS011;57172;52.034;5.090;2022-11-04T03:51:50;6.82;;;3.25;;
69894;SDS011;57172;52.034;5.090;2022-11-04T03:54:18;6.53;;;3.58;;
69894;SDS011;57172;52.034;5.090;2022-11-04T04:02:18;11.07;;;5.10;;
69894;SDS011;57172;52.034;5.090;2022-11-04T04:07:36;13.75;;;6.18;;
69894;SDS011;57172;52.034;5.090;2022-11-04T04:13:02;9.75;;;5.10;;
69894;SDS011;57172;52.034;5.090;2022-11-04T04:15:45;13.43;;;5.20;;
69894;SDS011;57172;52.034;5.090;2022-11-04T04:21:04;19.63;;;8.75;;
69894;SDS011;57172;52.034;5.090;2022-11-04T04:23:34;20.23;;;8.95;;
69894;SDS011;57172;52.034;5.090;2022-11-04T04:26:21;22.33;;;9.70;;
69894;SDS011;57172;52.034;5.090;2022-11-04T04:29:08;25.13;;;9.87;;
69894;SDS011;57172;52.034;5.090;2022-11-04T04:31:36;25.13;;;10.52;;
69894;SDS011;57172;52.034;5.090;2022-11-04T04:34:18;28.70;;;10.45;;
69894;SDS011;57172;52.034;5.090;2022-11-04T04:37:37;27.33;;;11.13;;
69894;SDS011;57172;52.034;5.090;2022-11-04T04:39:50;27.67;;;11.02;;
69894;SDS011;57172;52.034;5.090;2022-11-04T04:42:38;28.47;;;11.47;;
69894;SDS011;57172;52.034;5.090;2022-11-04T04:45:25;22.33;;;10.38;;
69894;SDS011;57172;52.034;5.090;2022-11-04T04:47:57;26.15;;;10.82;;
69894;SDS011;57172;52.034;5.090;2022-11-04T04:50:25;24.70;;;10.90;;
69894;SDS011;57172;52.034;5.090;2022-11-04T04:52:56;27.77;;;11.32;;
69894;SDS011;57172;52.034;5.090;2022-11-04T04:55:25;27.77;;;10.97;;
69894;SDS011;57172;52.034;5.090;2022-11-04T04:57:52;25.90;;;10.57;;
69894;SDS011;57172;52.034;5.090;2022-11-04T05:00:19;24.67;;;10.73;;
69894;SDS011;57172;52.034;5.090;2022-11-04T05:02:47;25.27;;;10.40;;
69894;SDS011;57172;52.034;5.090;2022-11-04T05:05:14;25.33;;;11.23;;
69894;SDS011;57172;52.034;5.090;2022-11-04T05:07:42;29.83;;;11.40;;
69894;SDS011;57172;52.034;5.090;2022-11-04T05:10:10;27.27;;;11.43;;
69894;SDS011;57172;52.034;5.090;2022-11-04T05:12:38;29.23;;;11.25;;
69894;SDS011;57172;52.034;5.090;2022-11-04T05:15:24;24.35;;;11.35;;
69894;SDS011;57172;52.034;5.090;2022-11-04T05:17:52;27.38;;;11.18;;
69894;SDS011;57172;52.034;5.090;2022-11-04T05:20:23;27.57;;;11.03;;
69894;SDS011;57172;52.034;5.090;2022-11-04T05:22:51;30.50;;;11.77;;
69894;SDS011;57172;52.034;5.090;2022-11-04T05:25:19;28.17;;;11.90;;
69894;SDS011;57172;52.034;5.090;2022-11-04T05:27:46;23.98;;;11.20;;
69894;SDS011;57172;52.034;5.090;2022-11-04T05:30:13;28.48;;;11.48;;
69894;SDS011;57172;52.034;5.090;2022-11-04T05:32:39;26.07;;;11.40;;
69894;SDS011;57172;52.034;5.090;2022-11-04T05:35:06;23.48;;;11.18;;
69894;SDS011;57172;52.034;5.090;2022-11-04T05:37:34;30.98;;;12.23;;
69894;SDS011;57172;52.034;5.090;2022-11-04T05:40:00;26.70;;;11.10;;
69894;SDS011;57172;52.034;5.090;2022-11-04T05:42:27;28.10;;;11.77;;
69894;SDS011;57172;52.034;5.090;2022-11-04T05:44:55;26.60;;;11.40;;
69894;SDS011;57172;52.034;5.090;2022-11-04T05:47:22;28.20;;;11.98;;
69894;SDS011;57172;52.034;5.090;2022-11-04T05:49:49;30.52;;;11.57;;
69894;SDS011;57172;52.034;5.090;2022-11-04T05:52:16;31.13;;;11.93;;
69894;SDS011;57172;52.034;5.090;2022-11-04T05:54:43;29.23;;;11.73;;
69894;SDS011;57172;52.034;5.090;2022-11-04T05:57:09;24.57;;;11.30;;
69894;SDS011;57172;52.034;5.090;2022-11-04T05:59:36;29.08;;;12.13;;
69894;SDS011;57172;52.034;5.090;2022-11-04T06:02:03;28.80;;;11.90;;
69894;SDS011;57172;52.034;5.090;2022-11-04T06:04:30;28.25;;;11.52;;
69894;SDS011;57172;52.034;5.090;2022-11-04T06:06:57;29.02;;;11.98;;
69894;SDS011;57172;52.034;5.090;2022-11-04T06:09:24;27.63;;;12.00;;
69894;SDS011;57172;52.034;5.090;2022-11-04T06:12:11;28.23;;;11.52;;
69894;SDS011;57172;52.034;5.090;2022-11-04T06:14:40;24.77;;;10.88;;
69894;SDS011;57172;52.034;5.090;2022-11-04T06:17:15;23.45;;;10.15;;
69894;SDS011;57172;52.034;5.090;2022-11-04T06:19:43;25.45;;;9.48;;
69894;SDS011;57172;52.034;5.090;2022-11-04T06:22:11;22.47;;;10.43;;
69894;SDS011;57172;52.034;5.090;2022-11-04T06:24:42;26.10;;;11.05;;
69894;SDS011;57172;52.034;5.090;2022-11-04T06:27:10;23.15;;;10.65;;
69894;SDS011;57172;52.034;5.090;2022-11-04T06:29:37;24.48;;;11.05;;
69894;SDS011;57172;52.034;5.090;2022-11-04T06:32:08;24.75;;;11.02;;
69894;SDS011;57172;52.034;5.090;2022-11-04T06:34:36;28.60;;;11.87;;
69894;SDS011;57172;52.034;5.090;2022-11-04T06:37:03;26.30;;;10.35;;
69894;SDS011;57172;52.034;5.090;2022-11-04T06:39:30;19.67;;;10.13;;
69894;SDS011;57172;52.034;5.090;2022-11-04T06:41:57;24.70;;;9.90;;
69894;SDS011;57172;52.034;5.090;2022-11-04T06:44:27;24.45;;;10.90;;
69894;SDS011;57172;52.034;5.090;2022-11-04T06:46:54;21.40;;;9.60;;
69894;SDS011;57172;52.034;5.090;2022-11-04T06:49:21;22.90;;;10.55;;
69894;SDS011;57172;52.034;5.090;2022-11-04T06:51:48;22.60;;;9.60;;
69894;SDS011;57172;52.034;5.090;2022-11-04T06:54:15;23.42;;;8.80;;
69894;SDS011;57172;52.034;5.090;2022-11-04T06:56:43;16.63;;;7.70;;
69894;SDS011;57172;52.034;5.090;2022-11-04T06:59:13;19.00;;;8.20;;
69894;SDS011;57172;52.034;5.090;2022-11-04T07:01:42;18.30;;;7.45;;
69894;SDS011;57172;52.034;5.090;2022-11-04T07:04:09;17.30;;;8.50;;
69894;SDS011;57172;52.034;5.090;2022-11-04T07:06:36;21.25;;;9.40;;
69894;SDS011;57172;52.034;5.090;2022-11-04T07:09:08;21.80;;;9.77;;
69894;SDS011;57172;52.034;5.090;2022-11-04T07:11:37;22.43;;;9.70;;
69894;SDS011;57172;52.034;5.090;2022-11-04T07:14:05;18.02;;;7.22;;
69894;SDS011;57172;52.034;5.090;2022-11-04T07:16:32;18.95;;;8.70;;
69894;SDS011;57172;52.034;5.090;2022-11-04T07:18:58;17.60;;;8.60;;
69894;SDS011;57172;52.034;5.090;2022-11-04T07:21:25;20.27;;;8.75;;
69894;SDS011;57172;52.034;5.090;2022-11-04T07:23:52;17.80;;;7.73;;
69894;SDS011;57172;52.034;5.090;2022-11-04T07:26:19;16.63;;;8.07;;
69894;SDS011;57172;52.034;5.090;2022-11-04T07:28:47;17.40;;;8.02;;
69894;SDS011;57172;52.034;5.090;2022-11-04T07:31:14;22.23;;;8.13;;
69894;SDS011;57172;52.034;5.090;2022-11-04T07:33:42;18.70;;;6.82;;
69894;SDS011;57172;52.034;5.090;2022-11-04T07:36:11;14.90;;;6.20;;
69894;SDS011;57172;52.034;5.090;2022-11-04T07:38:38;17.48;;;6.10;;
69894;SDS011;57172;52.034;5.090;2022-11-04T07:41:05;20.10;;;7.30;;
69894;SDS011;57172;52.034;5.090;2022-11-04T07:43:32;16.73;;;7.40;;
69894;SDS011;57172;52.034;5.090;2022-11-04T07:46:05;17.65;;;6.88;;
69894;SDS011;57172;52.034;5.090;2022-11-04T07:48:33;18.30;;;6.60;;
69894;SDS011;57172;52.034;5.090;2022-11-04T07:51:02;17.65;;;7.20;;
69894;SDS011;57172;52.034;5.090;2022-11-04T07:53:30;14.65;;;6.70;;
69894;SDS011;57172;52.034;5.090;2022-11-04T07:55:57;20.90;;;7.55;;
69894;SDS011;57172;52.034;5.090;2022-11-04T07:58:24;14.23;;;5.75;;
69894;SDS011;57172;52.034;5.090;2022-11-04T08:00:56;14.77;;;6.90;;
69894;SDS011;57172;52.034;5.090;2022-11-04T08:03:24;14.75;;;6.40;;
69894;SDS011;57172;52.034;5.090;2022-11-04T08:05:55;15.98;;;6.53;;
69894;SDS011;57172;52.034;5.090;2022-11-04T08:08:22;17.20;;;6.47;;
69894;SDS011;57172;52.034;5.090;2022-11-04T08:10:53;15.93;;;6.30;;
69894;SDS011;57172;52.034;5.090;2022-11-04T08:13:22;14.13;;;6.70;;
69894;SDS011;57172;52.034;5.090;2022-11-04T08:15:52;17.55;;;6.70;;
69894;SDS011;57172;52.034;5.090;2022-11-04T08:18:19;15.07;;;6.43;;
69894;SDS011;57172;52.034;5.090;2022-11-04T08:20:47;12.43;;;5.60;;
69894;SDS011;57172;52.034;5.090;2022-11-04T08:23:15;15.20;;;5.95;;
69894;SDS011;57172;52.034;5.090;2022-11-04T08:25:43;15.43;;;6.23;;
69894;SDS011;57172;52.034;5.090;2022-11-04T08:28:10;12.95;;;5.40;;
69894;SDS011;57172;52.034;5.090;2022-11-04T08:33:24;14.35;;;6.20;;
69894;SDS011;57172;52.034;5.090;2022-11-04T08:35:53;18.42;;;6.28;;
69894;SDS011;57172;52.034;5.090;2022-11-04T08:38:23;12.40;;;5.80;;
69894;SDS011;57172;52.034;5.090;2022-11-04T08:40:50;16.17;;;6.00;;
69894;SDS011;57172;52.034;5.090;2022-11-04T08:43:24;13.63;;;5.85;;
69894;SDS011;57172;52.034;5.090;2022-11-04T08:45:52;14.75;;;7.05;;
69894;SDS011;57172;52.034;5.090;2022-11-04T08:48:19;14.57;;;6.47;;
69894;SDS011;57172;52.034;5.090;2022-11-04T08:50:50;14.23;;;5.83;;
69894;SDS011;57172;52.034;5.090;2022-11-04T08:53:18;11.68;;;6.00;;
69894;SDS011;57172;52.034;5.090;2022-11-04T08:55:46;15.27;;;5.78;;
69894;SDS011;57172;52.034;5.090;2022-11-04T08:58:13;15.57;;;5.78;;
69894;SDS011;57172;52.034;5.090;2022-11-04T09:00:39;13.13;;;6.22;;
69894;SDS011;57172;52.034;5.090;2022-11-04T09:03:06;12.13;;;5.67;;
69894;SDS011;57172;52.034;5.090;2022-11-04T09:05:37;12.63;;;5.30;;
69894;SDS011;57172;52.034;5.090;2022-11-04T09:08:11;13.55;;;5.20;;
69894;SDS011;57172;52.034;5.090;2022-11-04T09:10:42;15.45;;;5.28;;
69894;SDS011;57172;52.034;5.090;2022-11-04T09:13:10;12.60;;;5.50;;
69894;SDS011;57172;52.034;5.090;2022-11-04T09:15:38;12.83;;;5.33;;
69894;SDS011;57172;52.034;5.090;2022-11-04T09:18:05;12.88;;;5.78;;
69894;SDS011;57172;52.034;5.090;2022-11-04T09:20:32;9.95;;;5.20;;
69894;SDS011;57172;52.034;5.090;2022-11-04T09:23:00;16.35;;;6.20;;
69894;SDS011;57172;52.034;5.090;2022-11-04T09:25:27;12.23;;;5.72;;
69894;SDS011;57172;52.034;5.090;2022-11-04T09:27:53;12.73;;;5.37;;
69894;SDS011;57172;52.034;5.090;2022-11-04T09:30:20;13.27;;;5.38;;
69894;SDS011;57172;52.034;5.090;2022-11-04T09:32:47;12.95;;;5.32;;
69894;SDS011;57172;52.034;5.090;2022-11-04T09:35:18;9.93;;;5.60;;
69894;SDS011;57172;52.034;5.090;2022-11-04T09:37:45;11.55;;;5.50;;
69894;SDS011;57172;52.034;5.090;2022-11-04T09:40:19;12.23;;;5.40;;
69894;SDS011;57172;52.034;5.090;2022-11-04T09:45:37;11.85;;;5.50;;
69894;SDS011;57172;52.034;5.090;2022-11-04T09:48:07;12.88;;;5.70;;
69894;SDS011;57172;52.034;5.090;2022-11-04T09:51:09;12.10;;;5.80;;
69894;SDS011;57172;52.034;5.090;2022-11-04T09:54:01;13.67;;;5.97;;
69894;SDS011;57172;52.034;5.090;2022-11-04T09:56:41;13.52;;;6.53;;
69894;SDS011;57172;52.034;5.090;2022-11-04T09:59:10;14.68;;;6.50;;
69894;SDS011;57172;52.034;5.090;2022-11-04T10:02:01;11.52;;;5.90;;
69894;SDS011;57172;52.034;5.090;2022-11-04T10:10:36;14.90;;;6.20;;
69894;SDS011;57172;52.034;5.090;2022-11-04T10:16:00;13.63;;;6.40;;
69894;SDS011;57172;52.034;5.090;2022-11-04T10:26:42;13.82;;;5.75;;
69894;SDS011;57172;52.034;5.090;2022-11-04T10:29:36;10.00;;;6.00;;
69894;SDS011;57172;52.034;5.090;2022-11-04T10:32:08;12.48;;;6.40;;
69894;SDS011;57172;52.034;5.090;2022-11-04T10:34:50;13.03;;;8.00;;
69894;SDS011;57172;52.034;5.090;2022-11-04T10:37:24;15.15;;;6.90;;
69894;SDS011;57172;52.034;5.090;2022-11-04T10:39:52;12.30;;;6.32;;
69894;SDS011;57172;52.034;5.090;2022-11-04T10:42:44;11.77;;;6.50;;
69894;SDS011;57172;52.034;5.090;2022-11-04T10:45:11;14.13;;;6.70;;
69894;SDS011;57172;52.034;5.090;2022-11-04T10:50:23;12.02;;;6.28;;
69894;SDS011;57172;52.034;5.090;2022-11-04T10:53:22;11.98;;;6.47;;
69894;SDS011;57172;52.034;5.090;2022-11-04T10:55:57;12.07;;;6.20;;
69894;SDS011;57172;52.034;5.090;2022-11-04T10:58:31;12.18;;;6.53;;
69894;SDS011;57172;52.034;5.090;2022-11-04T11:04:11;13.63;;;6.38;;
69894;SDS011;57172;52.034;5.090;2022-11-04T11:07:01;11.60;;;5.75;;
69894;SDS011;57172;52.034;5.090;2022-11-04T11:09:42;11.10;;;6.50;;
69894;SDS011;57172;52.034;5.090;2022-11-04T11:12:22;13.73;;;6.18;;
69894;SDS011;57172;52.034;5.090;2022-11-04T11:15:26;12.10;;;6.03;;
69894;SDS011;57172;52.034;5.090;2022-11-04T11:18:00;16.02;;;6.43;;
69894;SDS011;57172;52.034;5.090;2022-11-04T11:20:31;15.23;;;6.45;;
69894;SDS011;57172;52.034;5.090;2022-11-04T11:23:03;12.57;;;6.10;;
69894;SDS011;57172;52.034;5.090;2022-11-04T11:25:37;12.77;;;7.05;;
69894;SDS011;57172;52.034;5.090;2022-11-04T11:28:11;8.27;;;4.70;;
69894;SDS011;57172;52.034;5.090;2022-11-04T11:38:50;12.00;;;5.47;;
69894;SDS011;57172;52.034;5.090;2022-11-04T11:41:34;10.93;;;5.30;;
69894;SDS011;57172;52.034;5.090;2022-11-04T11:44:23;10.93;;;5.00;;
69894;SDS011;57172;52.034;5.090;2022-11-04T11:47:04;10.30;;;5.13;;
69894;SDS011;57172;52.034;5.090;2022-11-04T11:49:33;11.23;;;4.90;;
69894;SDS011;57172;52.034;5.090;2022-11-04T11:58:21;11.93;;;4.90;;
69894;SDS011;57172;52.034;5.090;2022-11-04T12:01:33;9.25;;;4.85;;
69894;SDS011;57172;52.034;5.090;2022-11-04T12:04:07;8.43;;;4.90;;
69894;SDS011;57172;52.034;5.090;2022-11-04T12:07:02;10.90;;;5.00;;
69894;SDS011;57172;52.034;5.090;2022-11-04T12:10:20;11.30;;;5.20;;
69894;SDS011;57172;52.034;5.090;2022-11-04T12:13:15;8.50;;;4.93;;
69894;SDS011;57172;52.034;5.090;2022-11-04T12:20:00;11.20;;;5.18;;
69894;SDS011;57172;52.034;5.090;2022-11-04T12:22:13;11.75;;;5.40;;
69894;SDS011;57172;52.034;5.090;2022-11-04T12:39:44;4.30;;;1.80;;
69894;SDS011;57172;52.034;5.090;2022-11-04T12:44:51;2.67;;;1.35;;
69894;SDS011;57172;52.034;5.090;2022-11-04T12:47:39;3.05;;;1.40;;
69894;SDS011;57172;52.034;5.090;2022-11-04T12:50:16;3.70;;;1.40;;
69894;SDS011;57172;52.034;5.090;2022-11-04T12:53:00;2.63;;;1.30;;
69894;SDS011;57172;52.034;5.090;2022-11-04T12:59:11;1.58;;;1.10;;
69894;SDS011;57172;52.034;5.090;2022-11-04T13:05:05;3.60;;;1.20;;
69894;SDS011;57172;52.034;5.090;2022-11-04T13:08:02;2.63;;;1.20;;
69894;SDS011;57172;52.034;5.090;2022-11-04T13:10:59;3.38;;;1.75;;
69894;SDS011;57172;52.034;5.090;2022-11-04T13:16:47;2.10;;;1.38;;
69894;SDS011;57172;52.034;5.090;2022-11-04T13:21:50;2.43;;;1.20;;
69894;SDS011;57172;52.034;5.090;2022-11-04T13:24:21;2.70;;;1.40;;
69894;SDS011;57172;52.034;5.090;2022-11-04T13:26:57;4.43;;;1.40;;
69894;SDS011;57172;52.034;5.090;2022-11-04T13:29:29;2.80;;;1.20;;
69894;SDS011;57172;52.034;5.090;2022-11-04T13:37:38;4.10;;;1.30;;
69894;SDS011;57172;52.034;5.090;2022-11-04T13:40:14;3.45;;;1.20;;
69894;SDS011;57172;52.034;5.090;2022-11-04T13:48:37;2.33;;;1.20;;
69894;SDS011;57172;52.034;5.090;2022-11-04T13:51:15;3.50;;;1.10;;
69894;SDS011;57172;52.034;5.090;2022-11-04T13:53:47;4.40;;;1.30;;
69894;SDS011;57172;52.034;5.090;2022-11-04T13:56:26;2.92;;;1.27;;
69894;SDS011;57172;52.034;5.090;2022-11-04T14:04:46;4.07;;;1.30;;
69894;SDS011;57172;52.034;5.090;2022-11-04T14:07:13;3.55;;;1.10;;
69894;SDS011;57172;52.034;5.090;2022-11-04T14:14:40;3.77;;;1.23;;
69894;SDS011;57172;52.034;5.090;2022-11-04T14:22:48;2.63;;;1.25;;
69894;SDS011;57172;52.034;5.090;2022-11-04T14:28:00;3.77;;;1.30;;
69894;SDS011;57172;52.034;5.090;2022-11-04T14:33:34;3.70;;;1.38;;
69894;SDS011;57172;52.034;5.090;2022-11-04T14:38:56;5.55;;;1.30;;
69894;SDS011;57172;52.034;5.090;2022-11-04T14:46:44;4.85;;;1.50;;
69894;SDS011;57172;52.034;5.090;2022-11-04T14:52:19;4.50;;;1.48;;
69894;SDS011;57172;52.034;5.090;2022-11-04T14:54:51;7.23;;;1.40;;
69894;SDS011;57172;52.034;5.090;2022-11-04T14:57:44;4.53;;;1.35;;
69894;SDS011;57172;52.034;5.090;2022-11-04T15:00:23;3.28;;;1.33;;
69894;SDS011;57172;52.034;5.090;2022-11-04T15:06:00;3.15;;;1.20;;
69894;SDS011;57172;52.034;5.090;2022-11-04T15:11:11;4.25;;;1.85;;
69894;SDS011;57172;52.034;5.090;2022-11-04T15:16:17;3.83;;;1.60;;
69894;SDS011;57172;52.034;5.090;2022-11-04T15:18:46;3.20;;;1.30;;
69894;SDS011;57172;52.034;5.090;2022-11-04T15:21:15;3.17;;;1.20;;
69894;SDS011;57172;52.034;5.090;2022-11-04T15:23:43;5.28;;;1.45;;
69894;SDS011;57172;52.034;5.090;2022-11-04T15:26:31;3.58;;;1.52;;
69894;SDS011;57172;52.034;5.090;2022-11-04T15:29:06;5.15;;;1.30;;
69894;SDS011;57172;52.034;5.090;2022-11-04T15:31:38;3.70;;;1.40;;
69894;SDS011;57172;52.034;5.090;2022-11-04T15:34:25;4.53;;;1.20;;
69894;SDS011;57172;52.034;5.090;2022-11-04T15:36:57;2.60;;;1.23;;
69894;SDS011;57172;52.034;5.090;2022-11-04T15:39:35;3.22;;;1.30;;
69894;SDS011;57172;52.034;5.090;2022-11-04T15:42:06;3.22;;;1.23;;
69894;SDS011;57172;52.034;5.090;2022-11-04T15:44:56;3.97;;;2.00;;
69894;SDS011;57172;52.034;5.090;2022-11-04T15:47:24;3.27;;;1.50;;
69894;SDS011;57172;52.034;5.090;2022-11-04T15:50:00;5.50;;;1.58;;
69894;SDS011;57172;52.034;5.090;2022-11-04T15:52:29;5.78;;;1.80;;
69894;SDS011;57172;52.034;5.090;2022-11-04T15:54:56;5.07;;;1.90;;
69894;SDS011;57172;52.034;5.090;2022-11-04T15:57:29;6.88;;;2.15;;
69894;SDS011;57172;52.034;5.090;2022-11-04T16:00:00;5.63;;;2.00;;
69894;SDS011;57172;52.034;5.090;2022-11-04T16:02:38;4.93;;;1.92;;
69894;SDS011;57172;52.034;5.090;2022-11-04T16:07:42;7.90;;;2.47;;
69894;SDS011;57172;52.034;5.090;2022-11-04T16:10:27;5.88;;;2.20;;
69894;SDS011;57172;52.034;5.090;2022-11-04T16:15:46;5.90;;;2.45;;
69894;SDS011;57172;52.034;5.090;2022-11-04T16:18:29;4.90;;;2.28;;
69894;SDS011;57172;52.034;5.090;2022-11-04T16:21:20;5.90;;;2.40;;
69894;SDS011;57172;52.034;5.090;2022-11-04T16:23:55;6.93;;;2.35;;
69894;SDS011;57172;52.034;5.090;2022-11-04T16:26:30;6.67;;;2.70;;
69894;SDS011;57172;52.034;5.090;2022-11-04T16:29:05;6.55;;;2.80;;
69894;SDS011;57172;52.034;5.090;2022-11-04T16:31:35;8.57;;;3.33;;
69894;SDS011;57172;52.034;5.090;2022-11-04T16:34:04;7.03;;;3.00;;
69894;SDS011;57172;52.034;5.090;2022-11-04T16:36:34;8.30;;;3.20;;
69894;SDS011;57172;52.034;5.090;2022-11-04T16:39:02;8.13;;;2.80;;
69894;SDS011;57172;52.034;5.090;2022-11-04T16:41:37;6.18;;;3.22;;
69894;SDS011;57172;52.034;5.090;2022-11-04T16:44:17;7.85;;;3.50;;
69894;SDS011;57172;52.034;5.090;2022-11-04T16:46:45;7.28;;;3.15;;
69894;SDS011;57172;52.034;5.090;2022-11-04T16:49:19;8.13;;;3.50;;
69894;SDS011;57172;52.034;5.090;2022-11-04T16:51:48;7.73;;;3.90;;
69894;SDS011;57172;52.034;5.090;2022-11-04T16:54:19;9.27;;;3.80;;
69894;SDS011;57172;52.034;5.090;2022-11-04T16:56:46;11.18;;;3.58;;
69894;SDS011;57172;52.034;5.090;2022-11-04T16:59:14;9.00;;;3.40;;
69894;SDS011;57172;52.034;5.090;2022-11-04T17:01:41;10.18;;;3.40;;
69894;SDS011;57172;52.034;5.090;2022-11-04T17:04:10;8.30;;;3.03;;
69894;SDS011;57172;52.034;5.090;2022-11-04T17:06:41;6.05;;;2.88;;
69894;SDS011;57172;52.034;5.090;2022-11-04T17:09:16;7.38;;;3.03;;
69894;SDS011;57172;52.034;5.090;2022-11-04T17:11:47;7.60;;;2.90;;
69894;SDS011;57172;52.034;5.090;2022-11-04T17:14:14;6.85;;;3.00;;
69894;SDS011;57172;52.034;5.090;2022-11-04T17:16:42;8.20;;;3.13;;
69894;SDS011;57172;52.034;5.090;2022-11-04T17:19:13;7.00;;;3.17;;
69894;SDS011;57172;52.034;5.090;2022-11-04T17:21:42;5.97;;;3.35;;
69894;SDS011;57172;52.034;5.090;2022-11-04T17:24:10;7.32;;;3.28;;
69894;SDS011;57172;52.034;5.090;2022-11-04T17:26:38;8.02;;;3.15;;
69894;SDS011;57172;52.034;5.090;2022-11-04T17:29:05;8.60;;;3.57;;
69894;SDS011;57172;52.034;5.090;2022-11-04T17:31:31;7.13;;;3.17;;
69894;SDS011;57172;52.034;5.090;2022-11-04T17:33:58;6.40;;;3.33;;
69894;SDS011;57172;52.034;5.090;2022-11-04T17:36:25;7.68;;;3.20;;
69894;SDS011;57172;52.034;5.090;2022-11-04T17:38:52;7.68;;;3.60;;
69894;SDS011;57172;52.034;5.090;2022-11-04T17:41:19;9.20;;;3.23;;
69894;SDS011;57172;52.034;5.090;2022-11-04T17:44:05;7.40;;;3.25;;
69894;SDS011;57172;52.034;5.090;2022-11-04T17:46:32;8.65;;;4.15;;
69894;SDS011;57172;52.034;5.090;2022-11-04T17:49:01;9.25;;;3.65;;
69894;SDS011;57172;52.034;5.090;2022-11-04T17:51:39;6.35;;;3.53;;
69894;SDS011;57172;52.034;5.090;2022-11-04T17:54:08;7.60;;;3.50;;
69894;SDS011;57172;52.034;5.090;2022-11-04T17:56:35;9.73;;;4.00;;
69894;SDS011;57172;52.034;5.090;2022-11-04T17:59:03;9.85;;;4.00;;
69894;SDS011;57172;52.034;5.090;2022-11-04T18:01:30;10.38;;;4.40;;
69894;SDS011;57172;52.034;5.090;2022-11-04T18:03:58;10.95;;;4.30;;
69894;SDS011;57172;52.034;5.090;2022-11-04T18:06:25;8.20;;;4.07;;